createdAt,value
2023-01-08T00:02:03.251Z,5.68
2023-01-08T00:04:32.364Z,5.62
2023-01-08T00:07:02.644Z,5.56
2023-01-08T00:09:31.792Z,5.51
2023-01-08T00:12:00.599Z,5.56
2023-01-08T00:14:31.145Z,5.55
2023-01-08T00:16:59.981Z,5.47
2023-01-08T00:19:29.740Z,5.47
2023-01-08T00:21:58.528Z,5.64
2023-01-08T00:24:28.977Z,5.42
2023-01-08T00:26:57.755Z,5.46
2023-01-08T00:29:26.914Z,5.39
2023-01-08T00:31:55.716Z,5.40
2023-01-08T00:34:24.826Z,5.46
2023-01-08T00:36:53.586Z,5.47
2023-01-08T00:39:22.856Z,5.31
2023-01-08T00:41:53.050Z,5.28
2023-01-08T00:44:22.136Z,5.31
2023-01-08T00:46:51.013Z,5.28
2023-01-08T00:49:20.072Z,5.19
2023-01-08T00:51:48.972Z,5.14
2023-01-08T00:54:18.049Z,5.21
2023-01-08T00:56:46.869Z,5.18
2023-01-08T00:59:17.321Z,5.03
2023-01-08T01:01:46.273Z,5.06
2023-01-08T01:04:16.026Z,5.12
2023-01-08T01:06:44.848Z,4.96
2023-01-08T01:09:14.108Z,5.05
2023-01-08T01:11:42.879Z,4.97
2023-01-08T01:14:11.934Z,4.83
2023-01-08T01:16:42.844Z,5.03
2023-01-08T01:19:12.199Z,4.86
2023-01-08T01:21:41.041Z,4.83
2023-01-08T01:24:13.946Z,4.93
2023-01-08T01:26:43.260Z,5.00
2023-01-08T01:29:12.332Z,4.83
2023-01-08T01:31:42.541Z,4.76
2023-01-08T01:34:12.091Z,4.78
2023-01-08T01:36:41.081Z,4.75
2023-01-08T01:39:10.441Z,4.76
2023-01-08T01:41:42.411Z,4.63
2023-01-08T01:44:39.897Z,4.70
2023-01-08T01:47:21.507Z,4.68
2023-01-08T01:49:58.072Z,4.79
2023-01-08T01:52:29.370Z,4.66
2023-01-08T01:55:01.941Z,4.64
2023-01-08T01:57:32.715Z,4.63
2023-01-08T02:00:06.131Z,4.66
2023-01-08T02:02:41.877Z,4.59
2023-01-08T02:05:11.328Z,4.55
2023-01-08T02:07:50.322Z,4.61
2023-01-08T02:10:32.336Z,4.70
2023-01-08T02:13:13.410Z,4.76
2023-01-08T02:15:57.393Z,4.78
2023-01-08T02:18:38.823Z,4.66
2023-01-08T02:21:15.091Z,4.62
2023-01-08T02:23:54.476Z,4.74
2023-01-08T02:26:29.602Z,4.84
2023-01-08T02:29:05.302Z,4.82
2023-01-08T02:31:36.407Z,4.90
2023-01-08T02:34:05.639Z,4.92
2023-01-08T02:36:41.028Z,4.84
2023-01-08T02:39:27.655Z,4.87
2023-01-08T02:42:12.201Z,4.83
2023-01-08T02:44:57.047Z,4.96
2023-01-08T02:47:36.533Z,4.89
2023-01-08T02:50:15.167Z,4.93
2023-01-08T02:52:55.830Z,5.03
2023-01-08T02:55:27.363Z,4.90
2023-01-08T02:57:59.989Z,4.89
2023-01-08T03:00:30.637Z,4.83
2023-01-08T03:03:09.019Z,4.87
2023-01-08T03:05:42.899Z,4.68
2023-01-08T03:08:13.710Z,4.70
2023-01-08T03:10:50.973Z,4.75
2023-01-08T03:13:27.817Z,4.66
2023-01-08T03:16:02.119Z,4.61
2023-01-08T03:18:39.289Z,4.59
2023-01-08T03:21:08.676Z,4.64
2023-01-08T03:23:42.021Z,4.59
2023-01-08T03:26:15.489Z,4.54
2023-01-08T03:28:52.828Z,4.43
2023-01-08T03:31:24.279Z,4.36
2023-01-08T03:33:55.336Z,4.41
2023-01-08T03:36:30.464Z,4.25
2023-01-08T03:39:06.752Z,4.29
2023-01-08T03:41:38.032Z,4.25
2023-01-08T03:44:08.588Z,4.39
2023-01-08T03:46:43.413Z,4.21
2023-01-08T03:49:13.947Z,4.22
2023-01-08T03:51:44.064Z,4.09
2023-01-08T03:54:18.159Z,4.07
2023-01-08T03:56:47.492Z,4.13
2023-01-08T03:59:18.889Z,4.14
2023-01-08T04:01:47.802Z,4.08
2023-01-08T04:04:18.177Z,4.02
2023-01-08T04:06:47.207Z,4.00
2023-01-08T04:09:16.323Z,4.13
2023-01-08T04:11:45.052Z,4.18
2023-01-08T04:14:14.247Z,4.15
2023-01-08T04:16:44.437Z,4.10
2023-01-08T04:19:14.180Z,3.98
2023-01-08T04:21:42.989Z,4.11
2023-01-08T04:24:13.637Z,4.01
2023-01-08T04:26:42.401Z,4.08
2023-01-08T04:29:12.345Z,3.91
2023-01-08T04:31:42.925Z,4.04
2023-01-08T04:34:12.345Z,4.01
2023-01-08T04:36:41.126Z,3.85
2023-01-08T04:39:11.448Z,4.16
2023-01-08T04:41:40.271Z,3.99
2023-01-08T04:44:10.493Z,3.98
2023-01-08T04:46:39.499Z,4.07
2023-01-08T04:49:11.361Z,4.10
2023-01-08T04:51:40.386Z,4.18
2023-01-08T04:54:09.522Z,4.27
2023-01-08T04:56:38.404Z,4.15
2023-01-08T04:59:07.547Z,4.14
2023-01-08T05:01:36.485Z,4.20
2023-01-08T05:04:07.096Z,4.21
2023-01-08T05:06:37.424Z,4.16
2023-01-08T05:09:06.544Z,4.07
2023-01-08T05:11:37.363Z,4.06
2023-01-08T05:14:06.535Z,4.13
2023-01-08T05:16:35.624Z,4.18
2023-01-08T05:19:04.744Z,4.16
2023-01-08T05:21:33.534Z,4.15
2023-01-08T05:24:04.023Z,4.21
2023-01-08T05:26:33.315Z,4.19
2023-01-08T05:29:02.855Z,4.22
2023-01-08T05:31:31.673Z,4.46
2023-01-08T05:34:00.915Z,4.31
2023-01-08T05:36:31.138Z,4.28
2023-01-08T05:39:00.189Z,4.47
2023-01-08T05:41:30.496Z,4.33
2023-01-08T05:43:59.645Z,4.26
2023-01-08T05:46:28.539Z,4.47
2023-01-08T05:48:58.556Z,4.36
2023-01-08T05:51:28.115Z,4.44
2023-01-08T05:53:57.799Z,4.41
2023-01-08T05:56:26.585Z,4.29
2023-01-08T05:58:57.219Z,4.20
2023-01-08T06:01:26.144Z,4.36
2023-01-08T06:03:57.130Z,4.29
2023-01-08T06:06:26.180Z,4.20
2023-01-08T06:08:55.332Z,4.21
2023-01-08T06:11:24.128Z,4.00
2023-01-08T06:13:53.176Z,4.11
2023-01-08T06:16:23.370Z,4.00
2023-01-08T06:18:52.584Z,4.02
2023-01-08T06:21:21.424Z,4.10
2023-01-08T06:23:50.495Z,4.01
2023-01-08T06:26:19.341Z,4.06
2023-01-08T06:28:48.433Z,3.92
2023-01-08T06:31:17.326Z,3.96
2023-01-08T06:33:47.773Z,4.16
2023-01-08T06:36:16.575Z,3.97
2023-01-08T06:38:45.763Z,3.97
2023-01-08T06:41:14.610Z,3.92
2023-01-08T06:43:43.673Z,3.96
2023-01-08T06:46:12.553Z,3.98
2023-01-08T06:48:41.820Z,4.04
2023-01-08T06:51:11.948Z,4.02
2023-01-08T06:53:41.043Z,4.00
2023-01-08T06:56:11.080Z,4.05
2023-01-08T06:58:40.716Z,4.10
2023-01-08T07:01:15.938Z,4.09
2023-01-08T07:03:45.911Z,4.05
2023-01-08T07:06:17.727Z,4.03
2023-01-08T07:08:47.470Z,3.98
2023-01-08T07:11:17.680Z,3.83
2023-01-08T07:13:46.764Z,3.82
2023-01-08T07:16:16.415Z,3.81
2023-01-08T07:18:45.566Z,3.87
2023-01-08T07:21:16.276Z,3.90
2023-01-08T07:23:47.308Z,4.07
2023-01-08T07:26:16.061Z,4.04
2023-01-08T07:28:45.645Z,3.89
2023-01-08T07:31:14.455Z,3.87
2023-01-08T07:33:43.527Z,3.91
2023-01-08T07:36:12.311Z,3.88
2023-01-08T07:38:43.545Z,3.89
2023-01-08T07:41:13.325Z,3.82
2023-01-08T07:43:42.396Z,3.80
2023-01-08T07:46:11.518Z,3.76
2023-01-08T07:48:40.591Z,3.88
2023-01-08T07:51:10.703Z,3.84
2023-01-08T07:53:39.877Z,4.00
2023-01-08T07:56:12.106Z,3.95
2023-01-08T07:58:41.243Z,4.00
2023-01-08T08:01:12.849Z,3.78
2023-01-08T08:03:42.444Z,3.95
2023-01-08T08:06:12.096Z,3.82
2023-01-08T08:08:42.269Z,3.77
2023-01-08T08:11:12.630Z,3.83
2023-01-08T08:13:44.899Z,3.90
2023-01-08T08:16:13.950Z,3.83
2023-01-08T08:18:43.018Z,3.83
2023-01-08T08:21:11.950Z,3.80
2023-01-08T08:23:41.000Z,3.83
2023-01-08T08:26:10.008Z,4.01
2023-01-08T08:28:40.425Z,4.00
2023-01-08T08:31:09.379Z,4.14
2023-01-08T08:33:38.488Z,4.01
2023-01-08T08:36:08.734Z,4.06
2023-01-08T08:38:39.937Z,3.91
2023-01-08T08:41:08.805Z,3.99
2023-01-08T08:43:39.271Z,4.07
2023-01-08T08:46:08.062Z,4.04
2023-01-08T08:48:37.127Z,4.00
2023-01-08T08:51:06.509Z,4.02
2023-01-08T08:53:35.688Z,4.07
2023-01-08T08:56:04.716Z,4.09
2023-01-08T08:58:33.819Z,4.10
2023-01-08T09:01:05.728Z,4.26
2023-01-08T09:03:35.231Z,4.19
2023-01-08T09:06:04.532Z,4.31
2023-01-08T09:08:33.714Z,4.36
2023-01-08T09:11:04.101Z,4.27
2023-01-08T09:13:33.286Z,4.26
2023-01-08T09:16:04.151Z,4.26
2023-01-08T09:18:33.235Z,4.33
2023-01-08T09:21:07.153Z,4.26
2023-01-08T09:23:36.300Z,4.29
2023-01-08T09:26:07.249Z,4.20
2023-01-08T09:28:36.374Z,4.33
2023-01-08T09:31:07.007Z,4.29
2023-01-08T09:33:36.275Z,4.26
2023-01-08T09:36:05.758Z,4.22
2023-01-08T09:38:34.838Z,4.30
2023-01-08T09:41:09.863Z,4.45
2023-01-08T09:43:44.590Z,4.49
2023-01-08T09:46:17.151Z,4.54
2023-01-08T09:48:47.565Z,4.51
2023-01-08T09:51:20.050Z,4.56
2023-01-08T09:53:56.850Z,4.77
2023-01-08T09:56:25.823Z,4.75
2023-01-08T09:58:57.865Z,4.76
2023-01-08T10:01:31.288Z,4.89
2023-01-08T10:04:08.512Z,4.81
2023-01-08T10:06:37.344Z,4.90
2023-01-08T10:09:08.917Z,4.90
2023-01-08T10:11:45.247Z,4.72
2023-01-08T10:14:28.177Z,4.73
2023-01-08T10:17:04.388Z,4.85
2023-01-08T10:19:34.144Z,4.99
2023-01-08T10:22:03.189Z,5.13
2023-01-08T10:24:35.185Z,5.12
2023-01-08T10:27:10.217Z,5.09
2023-01-08T10:29:39.938Z,5.00
2023-01-08T10:32:16.934Z,4.96
2023-01-08T10:34:50.361Z,4.94
2023-01-08T10:37:37.618Z,5.04
2023-01-08T10:40:25.479Z,4.97
2023-01-08T10:42:57.184Z,4.78
2023-01-08T10:45:29.581Z,4.93
2023-01-08T10:48:06.155Z,4.73
2023-01-08T10:50:36.556Z,4.76
2023-01-08T10:53:22.701Z,4.72
2023-01-08T10:56:00.216Z,4.87
2023-01-08T10:58:30.688Z,4.79
2023-01-08T11:01:13.095Z,4.85
2023-01-08T11:03:44.098Z,4.91
2023-01-08T11:06:20.071Z,5.01
2023-01-08T11:08:54.013Z,4.93
2023-01-08T11:11:24.265Z,4.90
2023-01-08T11:13:59.891Z,4.89
2023-01-08T11:16:36.090Z,4.89
2023-01-08T11:19:16.771Z,4.73
2023-01-08T11:21:57.876Z,4.75
2023-01-08T11:24:32.257Z,4.61
2023-01-08T11:27:09.854Z,4.55
2023-01-08T11:29:46.529Z,4.55
2023-01-08T11:32:47.498Z,4.79
2023-01-08T11:35:23.159Z,4.89
2023-01-08T11:37:58.253Z,4.77
2023-01-08T11:40:43.212Z,4.73
2023-01-08T11:43:32.421Z,4.77
2023-01-08T11:46:22.486Z,4.68
2023-01-08T11:49:24.363Z,4.78
2023-01-08T11:52:18.476Z,4.62
2023-01-08T11:55:15.805Z,4.79
2023-01-08T11:58:11.708Z,4.57
2023-01-08T12:01:00.794Z,4.72
2023-01-08T12:03:37.820Z,4.64
2023-01-08T12:06:29.611Z,4.62
2023-01-08T12:09:17.169Z,4.63
2023-01-08T12:11:58.714Z,4.60
2023-01-08T12:14:50.422Z,4.42
2023-01-08T12:18:13.310Z,4.63
2023-01-08T12:20:55.585Z,4.47
2023-01-08T12:23:49.102Z,4.37
2023-01-08T12:26:34.131Z,4.42
2023-01-08T12:29:33.455Z,4.53
2023-01-08T12:32:31.710Z,4.47
2023-01-08T12:35:11.749Z,4.38
2023-01-08T12:37:52.052Z,4.49
2023-01-08T12:40:28.178Z,4.42
2023-01-08T12:43:05.657Z,4.34
2023-01-08T12:45:42.065Z,4.44
2023-01-08T12:48:17.993Z,4.57
2023-01-08T12:51:00.786Z,4.42
2023-01-08T12:53:50.757Z,4.43
2023-01-08T12:56:33.641Z,4.33
2023-01-08T12:59:38.791Z,4.50
2023-01-08T13:02:35.680Z,4.39
2023-01-08T13:05:15.787Z,4.53
2023-01-08T13:07:48.319Z,4.42
2023-01-08T13:10:35.340Z,4.36
2023-01-08T13:13:06.227Z,4.24
2023-01-08T13:15:37.648Z,4.28
2023-01-08T13:18:18.935Z,4.55
2023-01-08T13:20:58.486Z,4.40
2023-01-08T13:23:29.909Z,4.37
2023-01-08T13:26:01.829Z,4.36
2023-01-08T13:28:44.060Z,4.36
2023-01-08T13:31:29.223Z,4.41
2023-01-08T13:33:58.401Z,4.26
2023-01-08T13:36:29.786Z,4.40
2023-01-08T13:39:06.190Z,4.35
2023-01-08T13:41:40.068Z,4.45
2023-01-08T13:44:27.257Z,4.42
2023-01-08T13:47:01.688Z,4.36
2023-01-08T13:49:42.357Z,4.28
2023-01-08T13:52:31.838Z,4.29
2023-01-08T13:55:04.399Z,4.37
2023-01-08T13:57:43.100Z,4.24
2023-01-08T14:00:25.485Z,4.25
2023-01-08T14:02:55.897Z,4.19
2023-01-08T14:05:34.652Z,4.24
2023-01-08T14:08:03.855Z,4.29
2023-01-08T14:10:33.913Z,4.25
2023-01-08T14:13:09.723Z,4.28
2023-01-08T14:15:40.807Z,4.33
2023-01-08T14:18:15.113Z,4.31
2023-01-08T14:20:51.440Z,4.21
2023-01-08T14:23:25.919Z,4.09
2023-01-08T14:25:56.100Z,4.13
2023-01-08T14:28:25.251Z,4.26
2023-01-08T14:30:56.993Z,4.15
2023-01-08T14:33:35.261Z,4.09
2023-01-08T14:36:08.368Z,4.22
2023-01-08T14:38:37.389Z,4.20
2023-01-08T14:41:10.719Z,4.02
2023-01-08T14:43:45.507Z,4.22
2023-01-08T14:46:23.493Z,4.17
2023-01-08T14:48:55.918Z,4.13
2023-01-08T14:51:28.916Z,4.11
2023-01-08T14:54:03.578Z,4.14
2023-01-08T14:56:36.363Z,4.14
2023-01-08T14:59:11.330Z,4.00
2023-01-08T15:01:41.881Z,4.02
2023-01-08T15:04:18.979Z,4.18
2023-01-08T15:06:48.593Z,4.20
2023-01-08T15:09:25.881Z,4.08
2023-01-08T15:11:58.071Z,4.11
2023-01-08T15:14:30.947Z,4.10
2023-01-08T15:17:10.341Z,4.15
2023-01-08T15:19:50.150Z,4.19
2023-01-08T15:22:24.473Z,4.06
2023-01-08T15:25:00.680Z,4.16
2023-01-08T15:27:31.440Z,4.03
2023-01-08T15:30:01.069Z,4.05
2023-01-08T15:32:34.774Z,3.98
2023-01-08T15:35:16.459Z,3.96
2023-01-08T15:37:46.200Z,3.96
2023-01-08T15:40:15.234Z,3.98
2023-01-08T15:43:02.557Z,4.05
2023-01-08T15:45:32.793Z,4.02
2023-01-08T15:48:02.185Z,4.11
2023-01-08T15:50:36.680Z,4.13
2023-01-08T15:53:08.700Z,4.06
2023-01-08T15:55:37.741Z,3.93
2023-01-08T15:58:06.873Z,3.89
2023-01-08T16:00:35.755Z,3.92
2023-01-08T16:03:07.271Z,4.00
2023-01-08T16:05:38.336Z,3.86
2023-01-08T16:08:07.569Z,3.92
2023-01-08T16:10:36.370Z,3.89
2023-01-08T16:13:05.472Z,3.96
2023-01-08T16:15:34.352Z,4.02
2023-01-08T16:18:03.607Z,3.90
2023-01-08T16:20:32.620Z,3.93
2023-01-08T16:23:03.169Z,4.05
2023-01-08T16:25:32.293Z,4.05
2023-01-08T16:28:03.174Z,3.83
2023-01-08T16:30:32.030Z,3.83
2023-01-08T16:33:01.122Z,3.85
2023-01-08T16:35:30.152Z,3.91
2023-01-08T16:37:59.283Z,3.84
2023-01-08T16:40:29.470Z,4.02
2023-01-08T16:43:02.850Z,3.81
2023-01-08T16:45:31.697Z,3.87
2023-01-08T16:48:00.770Z,3.84
2023-01-08T16:50:29.567Z,3.88
2023-01-08T16:52:58.748Z,3.88
2023-01-08T16:55:28.961Z,3.81
2023-01-08T16:57:58.071Z,3.89
2023-01-08T17:00:26.847Z,3.85
2023-01-08T17:02:56.035Z,3.89
2023-01-08T17:05:25.188Z,3.88
2023-01-08T17:07:54.777Z,3.95
2023-01-08T17:10:24.924Z,3.86
2023-01-08T17:12:55.364Z,3.86
2023-01-08T17:15:24.207Z,3.89
2023-01-08T17:17:53.331Z,3.96
2023-01-08T17:20:22.243Z,3.86
2023-01-08T17:22:51.560Z,3.88
2023-01-08T17:25:20.393Z,3.91
2023-01-08T17:27:49.664Z,3.92
2023-01-08T17:30:20.645Z,3.96
2023-01-08T17:32:49.759Z,3.80
2023-01-08T17:35:18.868Z,3.81
2023-01-08T17:37:47.954Z,3.95
2023-01-08T17:40:16.892Z,4.00
2023-01-08T17:42:45.955Z,3.99
2023-01-08T17:45:14.767Z,3.99
2023-01-08T17:47:45.255Z,4.05
2023-01-08T17:50:14.191Z,4.08
2023-01-08T17:52:43.264Z,4.07
2023-01-08T17:55:12.135Z,3.98
2023-01-08T17:57:41.401Z,4.03
2023-01-08T18:00:12.060Z,4.09
2023-01-08T18:02:41.165Z,3.98
2023-01-08T18:05:12.607Z,4.01
2023-01-08T18:07:41.878Z,4.00
2023-01-08T18:10:13.029Z,4.02
2023-01-08T18:12:42.106Z,3.92
2023-01-08T18:15:16.427Z,4.03
2023-01-08T18:17:45.838Z,4.00
2023-01-08T18:20:16.293Z,3.97
2023-01-08T18:22:46.274Z,4.05
2023-01-08T18:25:15.108Z,4.18
2023-01-08T18:27:44.281Z,4.12
2023-01-08T18:30:14.325Z,4.00
2023-01-08T18:32:43.423Z,4.00
2023-01-08T18:35:12.930Z,4.00
2023-01-08T18:37:43.379Z,3.98
2023-01-08T18:40:13.644Z,4.15
2023-01-08T18:42:42.829Z,4.16
2023-01-08T18:45:14.588Z,4.02
2023-01-08T18:47:43.930Z,4.03
2023-01-08T18:50:13.493Z,3.99
2023-01-08T18:52:44.017Z,4.08
2023-01-08T18:55:12.911Z,4.08
2023-01-08T18:57:42.325Z,4.09
2023-01-08T19:00:13.061Z,4.07
2023-01-08T19:02:42.175Z,4.03
2023-01-08T19:05:11.633Z,4.06
2023-01-08T19:07:41.555Z,4.18
2023-01-08T19:10:13.456Z,4.08
2023-01-08T19:12:42.596Z,4.05
2023-01-08T19:15:12.514Z,4.10
2023-01-08T19:17:41.948Z,4.12
2023-01-08T19:20:12.442Z,4.11
2023-01-08T19:22:41.456Z,4.12
2023-01-08T19:25:14.933Z,4.14
2023-01-08T19:27:44.046Z,4.16
2023-01-08T19:30:13.858Z,4.06
2023-01-08T19:32:43.090Z,4.17
2023-01-08T19:35:12.730Z,4.05
2023-01-08T19:37:43.074Z,4.16
2023-01-08T19:40:14.853Z,4.14
2023-01-08T19:43:02.125Z,4.19
2023-01-08T19:45:31.028Z,4.09
2023-01-08T19:48:00.169Z,4.33
2023-01-08T19:50:30.428Z,4.35
2023-01-08T19:52:59.588Z,4.22
2023-01-08T19:55:29.861Z,4.24
2023-01-08T19:57:59.720Z,4.23
2023-01-08T20:00:28.923Z,4.22
2023-01-08T20:02:57.705Z,4.25
2023-01-08T20:05:26.831Z,4.28
2023-01-08T20:07:55.656Z,4.27
2023-01-08T20:10:25.109Z,4.24
2023-01-08T20:12:55.366Z,4.22
2023-01-08T20:15:24.548Z,4.22
2023-01-08T20:17:53.401Z,4.25
2023-01-08T20:20:22.480Z,4.24
2023-01-08T20:22:51.325Z,4.29
2023-01-08T20:25:20.392Z,4.29
2023-01-08T20:27:49.194Z,4.22
2023-01-08T20:30:20.039Z,4.23
2023-01-08T20:35:22.912Z,4.24
2023-01-08T20:37:51.688Z,4.22
2023-01-08T20:40:20.943Z,4.26
2023-01-08T20:42:49.717Z,4.25
2023-01-08T20:45:20.176Z,4.38
2023-01-08T20:47:49.017Z,4.30
2023-01-08T20:50:20.384Z,4.30
2023-01-08T20:52:49.448Z,4.24
2023-01-08T20:55:18.855Z,4.25
2023-01-08T20:57:47.632Z,4.21
2023-01-08T21:00:18.474Z,4.30
2023-01-08T21:02:48.669Z,4.21
2023-01-08T21:05:18.046Z,4.19
2023-01-08T21:07:46.891Z,4.30
2023-01-08T21:10:16.182Z,4.18
2023-01-08T21:12:45.180Z,4.14
2023-01-08T21:15:14.300Z,4.20
2023-01-08T21:17:43.148Z,4.33
2023-01-08T21:20:14.414Z,4.24
2023-01-08T21:22:43.424Z,4.20
2023-01-08T21:25:16.048Z,4.19
2023-01-08T21:27:44.873Z,4.23
2023-01-08T21:30:14.399Z,4.22
2023-01-08T21:32:43.197Z,4.22
2023-01-08T21:35:13.743Z,4.25
2023-01-08T21:37:42.547Z,4.21
2023-01-08T21:40:13.568Z,4.11
2023-01-08T21:43:00.002Z,4.02
2023-01-08T21:45:29.738Z,4.13
2023-01-08T21:47:59.231Z,4.11
2023-01-08T21:50:29.747Z,4.34
2023-01-08T21:53:16.180Z,4.22
2023-01-08T21:55:46.507Z,4.13
2023-01-08T21:58:15.304Z,4.19
2023-01-08T22:00:44.556Z,4.37
2023-01-08T22:03:13.329Z,4.26
2023-01-08T22:05:43.797Z,4.18
2023-01-08T22:08:18.365Z,4.18
2023-01-08T22:10:47.483Z,4.17
2023-01-08T22:13:16.280Z,4.15
2023-01-08T22:15:45.375Z,4.22
2023-01-08T22:18:14.380Z,4.09
2023-01-08T22:20:46.745Z,4.41
2023-01-08T22:23:15.510Z,4.19
2023-01-08T22:25:44.685Z,4.22
2023-01-08T22:28:14.495Z,4.18
2023-01-08T22:30:43.602Z,4.18
2023-01-08T22:33:12.417Z,4.14
2023-01-08T22:35:41.919Z,4.11
2023-01-08T22:38:12.113Z,4.18
2023-01-08T22:40:41.408Z,4.05
2023-01-08T22:43:10.230Z,4.24
2023-01-08T22:45:39.372Z,4.22
2023-01-08T22:48:08.373Z,4.23
2023-01-08T22:50:37.524Z,4.21
2023-01-08T22:53:06.306Z,4.20
2023-01-08T22:55:36.883Z,4.21
2023-01-08T22:58:05.658Z,4.22
2023-01-08T23:00:34.809Z,4.19
2023-01-08T23:03:03.711Z,4.11
2023-01-08T23:05:33.918Z,4.24
2023-01-08T23:08:03.489Z,4.14
2023-01-08T23:10:32.835Z,4.22
2023-01-08T23:13:03.134Z,4.28
2023-01-08T23:15:32.316Z,4.22
2023-01-08T23:18:01.099Z,4.31
2023-01-08T23:20:30.179Z,4.30
2023-01-08T23:22:58.962Z,4.23
2023-01-08T23:25:30.158Z,4.21
2023-01-08T23:27:59.135Z,4.18
2023-01-08T23:30:31.623Z,4.20
2023-01-08T23:33:00.824Z,4.06
2023-01-08T23:35:29.932Z,4.05
2023-01-08T23:37:58.829Z,4.09
2023-01-08T23:40:27.916Z,4.07
2023-01-08T23:42:56.693Z,4.16
2023-01-08T23:45:25.801Z,4.01
2023-01-08T23:47:55.974Z,3.89
2023-01-08T23:50:25.049Z,3.90
2023-01-08T23:52:53.802Z,4.05
2023-01-08T23:55:23.279Z,4.04
2023-01-08T23:57:52.089Z,3.99
